createdAt,value
2018-08-24T00:00:01.780Z,3.43
2018-08-24T00:02:30.431Z,3.77
2018-08-24T00:04:59.080Z,3.33
2018-08-24T00:07:27.784Z,3.77
2018-08-24T00:09:56.442Z,3.70
2018-08-24T00:12:25.133Z,4.17
2018-08-24T00:14:53.809Z,4.80
2018-08-24T00:17:27.881Z,3.90
2018-08-24T00:19:56.573Z,4.17
2018-08-24T00:22:25.200Z,4.07
2018-08-24T00:24:53.877Z,4.43
2018-08-24T00:27:22.505Z,4.60
2018-08-24T00:29:51.175Z,4.67
2018-08-24T00:32:19.838Z,4.60
2018-08-24T00:34:48.511Z,4.30
2018-08-24T00:37:17.182Z,4.50
2018-08-24T00:39:45.872Z,5.07
2018-08-24T00:42:14.831Z,5.30
2018-08-24T00:44:43.621Z,5.40
2018-08-24T00:47:12.318Z,5.83
2018-08-24T00:49:41.094Z,6.20
2018-08-24T00:52:09.997Z,6.87
2018-08-24T00:54:38.683Z,6.87
2018-08-24T00:57:07.363Z,7.20
2018-08-24T00:59:36.049Z,7.27
2018-08-24T01:02:04.731Z,7.33
2018-08-24T01:04:37.625Z,8.30
2018-08-24T01:07:12.390Z,8.40
2018-08-24T01:09:41.854Z,8.87
2018-08-24T01:12:14.478Z,9.77
2018-08-24T01:14:45.320Z,9.97
2018-08-24T01:17:19.330Z,10.33
2018-08-24T01:19:48.304Z,11.70
2018-08-24T01:22:17.203Z,11.93
2018-08-24T01:24:45.949Z,12.00
2018-08-24T01:27:14.658Z,12.20
2018-08-24T01:29:43.903Z,11.10
2018-08-24T01:32:14.598Z,11.50
2018-08-24T01:34:43.305Z,11.67
2018-08-24T01:37:11.984Z,11.47
2018-08-24T01:39:40.639Z,10.90
2018-08-24T01:42:09.302Z,10.63
2018-08-24T01:44:37.930Z,11.67
2018-08-24T01:47:06.598Z,13.20
2018-08-24T01:49:35.220Z,13.80
2018-08-24T01:52:03.917Z,14.03
2018-08-24T01:54:32.614Z,14.30
2018-08-24T01:57:01.234Z,14.97
2018-08-24T01:59:29.879Z,15.30
2018-08-24T02:01:58.554Z,15.97
2018-08-24T02:04:27.239Z,16.73
2018-08-24T02:06:55.968Z,16.77
2018-08-24T02:09:24.594Z,17.20
2018-08-24T02:11:53.247Z,18.13
2018-08-24T02:14:27.132Z,18.50
2018-08-24T02:16:55.790Z,18.90
2018-08-24T02:19:29.660Z,18.60
2018-08-24T02:22:03.708Z,19.90
2018-08-24T02:24:32.330Z,20.87
2018-08-24T02:27:00.955Z,21.10
2018-08-24T02:29:29.613Z,21.83
2018-08-24T02:31:58.239Z,22.43
2018-08-24T02:34:26.908Z,25.40
2018-08-24T02:36:55.518Z,25.87
2018-08-24T02:39:24.179Z,25.40
2018-08-24T02:41:52.856Z,26.17
2018-08-24T02:44:21.531Z,25.73
2018-08-24T02:46:50.200Z,26.83
2018-08-24T02:49:18.859Z,27.53
2018-08-24T02:51:47.522Z,26.50
2018-08-24T02:54:16.206Z,26.93
2018-08-24T02:56:44.955Z,26.83
2018-08-24T02:59:13.574Z,26.93
2018-08-24T03:01:42.181Z,29.23
2018-08-24T03:04:10.851Z,27.77
2018-08-24T03:06:39.505Z,28.63
2018-08-24T03:09:10.070Z,30.53
2018-08-24T03:11:38.758Z,31.07
2018-08-24T03:14:07.553Z,31.40
2018-08-24T03:16:36.201Z,33.17
2018-08-24T03:19:04.893Z,32.80
2018-08-24T03:21:33.548Z,35.60
2018-08-24T03:24:02.200Z,36.60
2018-08-24T03:26:30.881Z,38.67
2018-08-24T03:28:59.542Z,37.73
2018-08-24T03:31:28.212Z,39.27
2018-08-24T03:33:56.893Z,40.93
2018-08-24T03:36:25.532Z,41.37
2018-08-24T03:38:54.230Z,38.47
2018-08-24T03:41:22.950Z,39.97
2018-08-24T03:43:51.581Z,40.30
2018-08-24T03:46:20.269Z,39.23
2018-08-24T03:48:48.967Z,40.00
2018-08-24T03:51:17.636Z,39.77
2018-08-24T03:53:46.305Z,38.20
2018-08-24T03:56:14.998Z,38.83
2018-08-24T03:58:43.690Z,38.43
2018-08-24T04:01:12.340Z,36.77
2018-08-24T04:03:41.029Z,34.23
2018-08-24T04:06:09.730Z,34.17
2018-08-24T04:08:38.348Z,30.27
2018-08-24T04:11:07.027Z,29.80
2018-08-24T04:13:35.678Z,28.50
2018-08-24T04:16:04.361Z,27.50
2018-08-24T04:18:33.052Z,26.20
2018-08-24T04:21:01.713Z,27.07
2018-08-24T04:23:30.382Z,28.03
2018-08-24T04:25:59.144Z,27.53
2018-08-24T04:28:27.724Z,28.87
2018-08-24T04:30:56.394Z,27.13
2018-08-24T04:33:25.034Z,28.30
2018-08-24T04:35:53.767Z,29.27
2018-08-24T04:38:22.453Z,28.60
2018-08-24T04:40:51.141Z,29.17
2018-08-24T04:43:19.825Z,30.13
2018-08-24T04:45:48.507Z,31.20
2018-08-24T04:48:17.132Z,32.70
2018-08-24T04:50:45.814Z,31.60
2018-08-24T04:53:14.510Z,33.33
2018-08-24T04:55:43.134Z,31.43
2018-08-24T04:58:11.832Z,32.60
2018-08-24T05:00:40.511Z,33.90
2018-08-24T05:03:09.201Z,31.23
2018-08-24T05:05:37.898Z,32.83
2018-08-24T05:08:06.519Z,33.43
2018-08-24T05:10:35.211Z,34.73
2018-08-24T05:13:03.833Z,32.53
2018-08-24T05:15:32.999Z,36.23
2018-08-24T05:18:04.450Z,36.23
2018-08-24T05:20:33.119Z,36.37
2018-08-24T05:23:01.807Z,36.10
2018-08-24T05:25:30.436Z,37.33
2018-08-24T05:27:59.162Z,38.30
2018-08-24T05:30:27.817Z,37.40
2018-08-24T05:32:56.438Z,38.13
2018-08-24T05:35:25.064Z,38.13
2018-08-24T05:37:53.722Z,39.27
2018-08-24T05:40:22.361Z,39.30
2018-08-24T05:42:51.049Z,37.67
2018-08-24T05:45:19.764Z,36.77
2018-08-24T05:47:48.460Z,36.63
2018-08-24T05:50:17.102Z,35.53
2018-08-24T05:52:45.773Z,36.50
2018-08-24T05:55:14.397Z,35.63
2018-08-24T05:57:43.087Z,36.47
2018-08-24T06:00:11.851Z,36.27
2018-08-24T06:02:40.542Z,36.40
2018-08-24T06:05:09.229Z,35.17
2018-08-24T06:07:38.034Z,36.93
2018-08-24T06:10:06.681Z,35.50
2018-08-24T06:12:35.436Z,36.10
2018-08-24T06:15:04.104Z,37.23
2018-08-24T06:17:38.140Z,37.40
2018-08-24T06:20:06.797Z,38.23
2018-08-24T06:22:35.480Z,38.10
2018-08-24T06:25:04.169Z,36.73
2018-08-24T06:27:32.847Z,35.07
2018-08-24T06:30:01.698Z,35.77
2018-08-24T06:32:30.354Z,33.17
2018-08-24T06:34:59.809Z,34.70
2018-08-24T06:37:28.473Z,33.23
2018-08-24T06:39:57.267Z,33.23
2018-08-24T06:42:25.910Z,32.20
2018-08-24T06:44:54.691Z,32.47
2018-08-24T06:47:23.375Z,30.97
2018-08-24T06:49:52.098Z,32.13
2018-08-24T06:52:20.773Z,30.80
2018-08-24T06:54:49.506Z,30.57
2018-08-24T06:57:18.257Z,30.53
2018-08-24T06:59:47.024Z,31.37
2018-08-24T07:02:15.621Z,31.83
2018-08-24T07:04:44.297Z,30.37
2018-08-24T07:07:12.963Z,29.13
2018-08-24T07:09:41.654Z,29.63
2018-08-24T07:12:11.880Z,28.47
2018-08-24T07:14:41.093Z,29.63
2018-08-24T07:17:09.783Z,28.40
2018-08-24T07:19:38.465Z,27.93
2018-08-24T07:22:07.297Z,27.57
2018-08-24T07:24:35.964Z,27.80
2018-08-24T07:27:04.664Z,26.67
2018-08-24T07:29:33.283Z,26.87
2018-08-24T07:32:02.010Z,26.67
2018-08-24T07:34:30.635Z,25.90
2018-08-24T07:36:59.297Z,25.77
2018-08-24T07:39:27.977Z,26.03
2018-08-24T07:41:56.696Z,25.83
2018-08-24T07:44:25.390Z,25.30
2018-08-24T07:46:54.090Z,25.60
2018-08-24T07:49:22.769Z,25.80
2018-08-24T07:51:51.450Z,25.73
2018-08-24T07:54:20.119Z,23.60
2018-08-24T07:56:48.806Z,24.67
2018-08-24T07:59:17.437Z,23.20
2018-08-24T08:01:46.072Z,22.77
2018-08-24T08:04:14.794Z,21.17
2018-08-24T08:06:43.427Z,19.97
2018-08-24T08:09:12.158Z,20.20
2018-08-24T08:11:41.373Z,19.73
2018-08-24T08:14:10.480Z,18.73
2018-08-24T08:16:39.201Z,17.40
2018-08-24T08:19:07.843Z,17.67
2018-08-24T08:21:36.488Z,14.97
2018-08-24T08:24:05.277Z,15.00
2018-08-24T08:26:33.934Z,13.03
2018-08-24T08:29:02.610Z,12.10
2018-08-24T08:31:31.273Z,14.00
2018-08-24T08:33:59.979Z,14.50
2018-08-24T08:36:28.619Z,13.80
2018-08-24T08:38:57.301Z,14.03
2018-08-24T08:41:26.080Z,12.27
2018-08-24T08:43:54.726Z,11.27
2018-08-24T08:46:23.358Z,10.13
2018-08-24T08:48:52.034Z,8.23
2018-08-24T08:51:20.716Z,7.30
2018-08-24T08:53:49.384Z,6.97
2018-08-24T08:56:18.079Z,6.60
2018-08-24T08:58:46.707Z,6.37
2018-08-24T09:01:15.342Z,5.00
2018-08-24T09:03:44.396Z,5.37
2018-08-24T09:06:13.144Z,4.93
2018-08-24T09:08:41.744Z,4.27
2018-08-24T09:11:10.439Z,4.40
2018-08-24T09:13:39.309Z,4.30
2018-08-24T09:16:07.931Z,3.93
2018-08-24T09:18:41.861Z,3.53
2018-08-24T09:21:15.706Z,3.50
2018-08-24T09:23:49.763Z,3.70
2018-08-24T09:26:23.543Z,3.07
2018-08-24T09:28:53.709Z,3.70
2018-08-24T09:31:27.484Z,3.30
2018-08-24T09:33:56.151Z,3.50
2018-08-24T09:36:24.817Z,3.30
2018-08-24T09:38:53.800Z,3.20
2018-08-24T09:41:22.425Z,3.40
2018-08-24T09:43:56.270Z,3.00
2018-08-24T09:46:30.269Z,3.53
2018-08-24T09:49:32.997Z,3.03
2018-08-24T09:52:05.782Z,3.53
2018-08-24T09:54:34.464Z,3.30
2018-08-24T09:57:03.134Z,3.37
2018-08-24T09:59:31.786Z,2.80
2018-08-24T10:02:05.861Z,2.70
2018-08-24T10:04:39.897Z,2.70
2018-08-24T10:07:13.942Z,2.70
2018-08-24T10:09:42.593Z,2.33
2018-08-24T10:12:11.263Z,2.80
2018-08-24T10:14:39.976Z,2.93
2018-08-24T10:17:08.613Z,2.43
2018-08-24T10:19:37.306Z,2.53
2018-08-24T10:22:06.038Z,2.30
2018-08-24T10:24:34.679Z,2.10
2018-08-24T10:27:03.396Z,2.17
2018-08-24T10:29:32.075Z,2.20
2018-08-24T10:32:00.710Z,2.27
2018-08-24T10:34:29.383Z,2.07
2018-08-24T10:36:58.064Z,1.80
2018-08-24T10:39:26.704Z,1.73
2018-08-24T10:41:55.438Z,1.53
2018-08-24T10:44:24.678Z,1.90
2018-08-24T10:46:53.453Z,1.90
2018-08-24T10:49:22.160Z,1.60
2018-08-24T10:51:50.851Z,1.67
2018-08-24T10:54:19.609Z,1.43
2018-08-24T10:56:49.192Z,2.00
2018-08-24T10:59:17.953Z,1.70
2018-08-24T11:01:46.660Z,2.00
2018-08-24T11:04:15.418Z,2.37
2018-08-24T11:06:44.159Z,2.40
2018-08-24T11:09:12.979Z,1.57
2018-08-24T11:11:41.767Z,1.87
2018-08-24T11:14:10.616Z,1.97
2018-08-24T11:16:39.298Z,1.90
2018-08-24T11:19:08.056Z,1.70
2018-08-24T11:21:36.734Z,1.87
2018-08-24T11:24:05.409Z,2.00
2018-08-24T11:26:34.104Z,1.97
2018-08-24T11:29:02.783Z,1.70
2018-08-24T11:31:31.496Z,1.87
2018-08-24T11:34:00.173Z,1.83
2018-08-24T11:36:28.848Z,1.80
2018-08-24T11:38:57.526Z,1.80
2018-08-24T11:41:26.236Z,2.00
2018-08-24T11:43:54.886Z,2.00
2018-08-24T11:46:23.595Z,2.00
2018-08-24T11:48:52.192Z,2.10
2018-08-24T11:51:20.938Z,2.03
2018-08-24T11:53:49.554Z,2.17
2018-08-24T11:56:18.221Z,1.80
2018-08-24T11:58:46.837Z,1.97
2018-08-24T12:01:15.544Z,1.90
2018-08-24T12:03:44.195Z,2.10
2018-08-24T12:06:13.023Z,1.83
2018-08-24T12:08:41.660Z,2.33
2018-08-24T12:11:10.324Z,1.83
2018-08-24T12:13:39.107Z,1.80
2018-08-24T12:16:07.788Z,1.53
2018-08-24T12:18:36.522Z,2.10
2018-08-24T12:21:05.192Z,1.70
2018-08-24T12:23:33.963Z,1.50
2018-08-24T12:26:02.606Z,1.30
2018-08-24T12:28:31.488Z,1.53
2018-08-24T12:31:00.282Z,2.10
2018-08-24T12:33:28.818Z,1.40
2018-08-24T12:35:57.480Z,1.67
2018-08-24T12:38:26.101Z,1.57
2018-08-24T12:40:54.777Z,1.60
2018-08-24T12:43:23.508Z,1.50
2018-08-24T12:45:52.374Z,1.50
2018-08-24T12:48:21.001Z,1.60
2018-08-24T12:50:49.696Z,1.33
2018-08-24T12:53:18.422Z,1.20
2018-08-24T12:55:47.094Z,1.30
2018-08-24T12:58:15.847Z,1.40
2018-08-24T13:00:44.534Z,1.40
2018-08-24T13:03:13.487Z,1.37
2018-08-24T13:05:42.174Z,1.20
2018-08-24T13:08:10.820Z,1.63
2018-08-24T13:10:39.528Z,1.40
2018-08-24T13:13:08.156Z,1.40
2018-08-24T13:15:36.869Z,1.40
2018-08-24T13:18:05.716Z,1.60
2018-08-24T13:20:34.426Z,1.30
2018-08-24T13:23:03.093Z,1.43
2018-08-24T13:25:31.754Z,1.63
2018-08-24T13:28:00.454Z,1.53
2018-08-24T13:30:29.077Z,1.50
2018-08-24T13:32:57.770Z,1.50
2018-08-24T13:35:26.434Z,1.13
2018-08-24T13:37:55.070Z,1.53
2018-08-24T13:40:23.833Z,1.30
2018-08-24T13:42:52.486Z,1.27
2018-08-24T13:45:21.104Z,1.47
2018-08-24T13:47:49.786Z,1.53
2018-08-24T13:50:18.468Z,1.40
2018-08-24T13:52:47.125Z,1.53
2018-08-24T13:55:15.841Z,1.83
2018-08-24T13:57:44.455Z,1.50
2018-08-24T14:00:13.201Z,1.70
2018-08-24T14:02:42.029Z,1.43
2018-08-24T14:05:10.785Z,1.43
2018-08-24T14:07:39.503Z,1.63
2018-08-24T14:10:08.201Z,1.77
2018-08-24T14:12:36.910Z,1.40
2018-08-24T14:15:05.872Z,1.73
2018-08-24T14:17:34.567Z,1.50
2018-08-24T14:20:03.253Z,1.80
2018-08-24T14:22:31.882Z,1.50
2018-08-24T14:25:00.590Z,1.60
2018-08-24T14:27:29.223Z,1.60
2018-08-24T14:29:57.869Z,1.53
2018-08-24T14:32:26.632Z,1.77
2018-08-24T14:34:55.290Z,1.70
2018-08-24T14:37:23.983Z,1.70
2018-08-24T14:39:52.693Z,1.90
2018-08-24T14:42:21.369Z,1.70
2018-08-24T14:44:50.092Z,1.70
2018-08-24T14:47:18.927Z,1.57
2018-08-24T14:49:47.764Z,1.83
2018-08-24T14:52:17.287Z,1.77
2018-08-24T14:54:46.157Z,1.90
2018-08-24T14:57:14.965Z,1.63
2018-08-24T14:59:44.134Z,1.47
2018-08-24T15:02:12.841Z,1.50
2018-08-24T15:04:41.538Z,1.40
2018-08-24T15:07:10.544Z,1.50
2018-08-24T15:09:39.196Z,1.47
2018-08-24T15:12:08.315Z,1.73
2018-08-24T15:14:36.945Z,1.40
2018-08-24T15:17:05.736Z,1.50
2018-08-24T15:19:34.453Z,1.53
2018-08-24T15:22:03.788Z,1.57
2018-08-24T15:24:32.498Z,1.60
2018-08-24T15:27:01.136Z,1.60
2018-08-24T15:29:29.882Z,1.47
2018-08-24T15:31:58.537Z,1.37
2018-08-24T15:34:27.230Z,1.70
2018-08-24T15:36:55.849Z,1.60
2018-08-24T15:39:24.551Z,1.60
2018-08-24T15:41:53.203Z,1.43
2018-08-24T15:44:21.845Z,1.40
2018-08-24T15:46:50.497Z,1.83
2018-08-24T15:49:19.123Z,1.67
2018-08-24T15:51:47.827Z,1.40
2018-08-24T15:54:16.521Z,1.50
2018-08-24T15:56:45.161Z,1.70
2018-08-24T15:59:13.814Z,1.50
2018-08-24T16:01:42.478Z,1.43
2018-08-24T16:04:11.116Z,1.60
2018-08-24T16:06:40.638Z,1.60
2018-08-24T16:09:10.569Z,1.80
2018-08-24T16:11:39.612Z,1.80
2018-08-24T16:14:08.538Z,1.43
2018-08-24T16:16:37.541Z,1.77
2018-08-24T16:19:06.122Z,1.60
2018-08-24T16:21:34.787Z,1.40
2018-08-24T16:24:03.459Z,1.63
2018-08-24T16:26:32.132Z,1.37
2018-08-24T16:29:00.823Z,1.70
2018-08-24T16:31:29.454Z,1.43
2018-08-24T16:33:58.137Z,1.50
2018-08-24T16:36:26.794Z,1.40
2018-08-24T16:38:55.543Z,1.47
2018-08-24T16:41:24.138Z,1.40
2018-08-24T16:44:05.104Z,1.70
2018-08-24T16:46:33.940Z,1.70
2018-08-24T16:49:02.670Z,1.60
2018-08-24T16:51:31.359Z,1.70
2018-08-24T16:54:00.027Z,1.30
2018-08-24T16:56:28.664Z,1.60
2018-08-24T16:58:57.373Z,1.30
2018-08-24T17:01:26.006Z,1.30
2018-08-24T17:03:54.745Z,1.30
2018-08-24T17:06:23.390Z,1.30
2018-08-24T17:08:52.088Z,1.67
2018-08-24T17:11:20.765Z,1.50
2018-08-24T17:13:49.421Z,1.50
2018-08-24T17:16:18.093Z,1.40
2018-08-24T17:18:46.727Z,1.80
2018-08-24T17:21:15.386Z,1.53
2018-08-24T17:23:44.827Z,1.80
2018-08-24T17:26:13.502Z,1.40
2018-08-24T17:28:42.307Z,1.63
2018-08-24T17:31:10.920Z,1.47
2018-08-24T17:33:39.619Z,1.50
2018-08-24T17:36:08.270Z,1.80
2018-08-24T17:38:36.943Z,1.43
2018-08-24T17:41:05.691Z,1.47
2018-08-24T17:43:34.362Z,1.30
2018-08-24T17:46:03.027Z,1.20
2018-08-24T17:48:31.837Z,1.53
2018-08-24T17:51:00.538Z,1.30
2018-08-24T17:53:29.397Z,1.20
2018-08-24T17:55:58.069Z,1.23
2018-08-24T17:58:26.834Z,1.30
2018-08-24T18:00:55.501Z,1.30
2018-08-24T18:03:24.185Z,1.60
2018-08-24T18:05:52.846Z,1.60
2018-08-24T18:08:21.488Z,1.30
2018-08-24T18:10:50.185Z,1.40
2018-08-24T18:13:18.817Z,1.43
2018-08-24T18:15:47.503Z,1.40
2018-08-24T18:18:16.154Z,1.20
2018-08-24T18:20:44.791Z,1.33
2018-08-24T18:23:13.454Z,1.70
2018-08-24T18:25:42.141Z,1.57
2018-08-24T18:28:10.814Z,1.37
2018-08-24T18:30:39.488Z,1.40
2018-08-24T18:33:08.108Z,1.47
2018-08-24T18:35:36.745Z,1.33
2018-08-24T18:38:05.405Z,1.30
2018-08-24T18:40:34.061Z,1.30
2018-08-24T18:43:02.671Z,1.23
2018-08-24T18:45:31.311Z,1.40
2018-08-24T18:47:59.981Z,1.27
2018-08-24T18:50:28.644Z,1.30
2018-08-24T18:52:57.301Z,1.80
2018-08-24T18:55:25.980Z,1.50
2018-08-24T18:57:54.627Z,1.50
2018-08-24T19:00:23.271Z,1.57
2018-08-24T19:02:51.886Z,1.30
2018-08-24T19:05:20.571Z,1.53
2018-08-24T19:07:53.578Z,1.40
2018-08-24T19:10:22.222Z,1.33
2018-08-24T19:12:50.916Z,1.40
2018-08-24T19:15:19.584Z,1.60
2018-08-24T19:17:53.418Z,1.20
2018-08-24T19:20:27.478Z,1.20
2018-08-24T19:22:56.384Z,1.47
2018-08-24T19:25:25.100Z,1.50
2018-08-24T19:27:59.035Z,1.50
2018-08-24T19:30:34.332Z,1.10
2018-08-24T19:33:03.491Z,1.50
2018-08-24T19:35:32.275Z,1.30
2018-08-24T19:38:00.998Z,1.43
2018-08-24T19:40:35.036Z,1.60
2018-08-24T19:43:03.924Z,1.17
2018-08-24T19:45:32.573Z,1.40
2018-08-24T19:48:06.522Z,1.37
2018-08-24T19:50:35.344Z,1.40
2018-08-24T19:53:04.141Z,1.50
2018-08-24T19:55:50.436Z,1.50
2018-08-24T20:00:59.216Z,1.40
2018-08-24T20:03:28.496Z,1.50
2018-08-24T20:06:02.518Z,1.40
2018-08-24T20:08:36.530Z,1.23
2018-08-24T20:11:05.402Z,1.20
2018-08-24T20:13:34.146Z,1.30
2018-08-24T20:16:08.322Z,1.53
2018-08-24T20:18:37.285Z,1.30
2018-08-24T20:21:05.935Z,1.33
2018-08-24T20:23:34.554Z,1.60
2018-08-24T20:26:03.229Z,1.27
2018-08-24T20:28:31.848Z,1.30
2018-08-24T20:31:00.524Z,1.50
2018-08-24T20:33:29.233Z,1.30
2018-08-24T20:35:57.884Z,1.27
2018-08-24T20:38:26.680Z,1.50
2018-08-24T20:40:55.451Z,1.30
2018-08-24T20:43:24.122Z,1.40
2018-08-24T20:45:52.843Z,1.30
2018-08-24T20:48:21.579Z,1.30
2018-08-24T20:50:50.252Z,1.30
2018-08-24T20:53:19.005Z,1.40
2018-08-24T20:55:48.343Z,1.30
2018-08-24T20:58:17.140Z,1.33
2018-08-24T21:00:45.770Z,1.30
2018-08-24T21:03:14.458Z,1.60
2018-08-24T21:05:43.200Z,1.53
2018-08-24T21:08:11.913Z,1.30
2018-08-24T21:10:40.720Z,1.57
2018-08-24T21:13:09.338Z,1.90
2018-08-24T21:15:38.006Z,1.97
2018-08-24T21:18:06.753Z,1.50
2018-08-24T21:20:35.386Z,1.70
2018-08-24T21:23:04.196Z,1.90
2018-08-24T21:25:32.856Z,1.57
2018-08-24T21:28:01.517Z,1.57
2018-08-24T21:30:30.181Z,1.70
2018-08-24T21:32:59.023Z,1.70
2018-08-24T21:35:27.699Z,1.60
2018-08-24T21:37:56.399Z,1.60
2018-08-24T21:40:25.057Z,1.80
2018-08-24T21:42:53.736Z,1.87
2018-08-24T21:45:22.374Z,1.90
2018-08-24T21:47:51.012Z,1.73
2018-08-24T21:50:19.797Z,2.00
2018-08-24T21:52:48.556Z,1.87
2018-08-24T21:55:17.263Z,1.87
2018-08-24T21:57:45.979Z,1.93
2018-08-24T22:00:15.523Z,2.07
2018-08-24T22:02:45.057Z,1.77
2018-08-24T22:05:13.781Z,1.90
2018-08-24T22:07:42.482Z,1.87
2018-08-24T22:10:11.207Z,1.80
2018-08-24T22:12:39.962Z,2.03
2018-08-24T22:15:08.628Z,1.83
2018-08-24T22:17:37.282Z,2.13
2018-08-24T22:20:06.330Z,2.10
2018-08-24T22:22:35.033Z,2.17
2018-08-24T22:25:03.909Z,2.00
2018-08-24T22:27:32.660Z,1.80
2018-08-24T22:30:01.707Z,2.20
2018-08-24T22:32:31.213Z,2.23
2018-08-24T22:35:00.320Z,1.90
2018-08-24T22:37:29.263Z,1.77
2018-08-24T22:39:59.222Z,2.27
2018-08-24T22:42:28.373Z,2.00
2018-08-24T22:44:57.454Z,2.33
2018-08-24T22:47:26.358Z,2.20
2018-08-24T22:49:55.186Z,2.37
2018-08-24T22:52:24.539Z,2.10
2018-08-24T22:54:53.767Z,2.30
2018-08-24T22:57:23.010Z,2.73
2018-08-24T22:59:51.830Z,2.17
2018-08-24T23:02:20.808Z,2.67
2018-08-24T23:04:49.793Z,2.23
2018-08-24T23:07:19.019Z,2.50
2018-08-24T23:09:47.923Z,2.40
2018-08-24T23:12:16.642Z,2.03
2018-08-24T23:14:45.521Z,2.47
2018-08-24T23:17:14.154Z,2.27
2018-08-24T23:19:42.839Z,2.50
2018-08-24T23:22:11.429Z,2.50
2018-08-24T23:24:40.135Z,2.40
2018-08-24T23:27:08.854Z,2.70
2018-08-24T23:29:37.798Z,2.17
2018-08-24T23:32:06.524Z,2.37
2018-08-24T23:34:35.159Z,2.03
2018-08-24T23:37:04.002Z,2.20
2018-08-24T23:39:32.757Z,2.17
2018-08-24T23:42:01.425Z,2.70
2018-08-24T23:44:30.080Z,2.17
2018-08-24T23:46:58.790Z,2.53
2018-08-24T23:49:27.469Z,2.50
2018-08-24T23:51:56.100Z,2.40
2018-08-24T23:54:24.765Z,2.40
2018-08-24T23:56:53.416Z,2.10
2018-08-24T23:59:22.126Z,2.00
